Airfield :
LOGIN :

Register | Disclaimer

   EN    FR    IT 

 










Legend :    VFR   Marginal VFR   IFR   Intensive IFR   Very Intensive IFR
Visi :
Ceiling :
>= 8 km
>= 3000ft
5 to 8 km
1000 to 3000 ft
1500m to 5 km
500 to 1000 ft
800 to 1500m
200 to 500 ft
< 800m
< 200 ft
Symbols :   Thunderstorms  Fog  Heavy snow  Heavy precipitations  Wind > 20 kt
SIGMETs :     Misc.  Thunderstorms  Icing  Turbulence  Mountain Waves  Volcanic Ashes







- Airport Elevation : 466 ft


LHPA - Pápa

CURRENT METAR :
  • 180457Z 00000KT CAVOK 11/08 Q1018 RERA RMK BLU

EXPIRED METARs :
  • 180445Z 06002KT 9999 -RA BKN083 11/09 Q1019 BECMG NSW RMK BLU
  • 180433Z 00000KT 9999 -RA BKN083 10/08 Q1019 RMK BLU
  • 180415Z 00000KT CAVOK 10/08 Q1019 NOSIG RMK BLU
  • 180345Z 00000KT CAVOK 10/08 Q1019 NOSIG RMK BLU
  • 180315Z 12002KT CAVOK 10/08 Q1019 NOSIG RMK BLU
  • 180245Z 00000KT CAVOK 10/08 Q1019 NOSIG RMK BLU
  • 180215Z 00000KT CAVOK 09/08 Q1019 NOSIG RMK BLU

TAF TAF LHPA
Valid from the 18 at 00:00 until the 19 at 00:00 UTC


172315Z 1800/1824 VRB03KT CAVOK
PROB30
TEMPO 1807/1812 8000 -RA -SHRA SCT045 BKN083
No reported NOTAMs for that airfield.



MET'MAP, your aeronautical weather chart ! - Copyright ORBIFLY December 2007 - Disclaimer

ORBIFLY MET'MAP TEAM :

Programming & Development : Alexandra Zaïnal
Concept & Development : Baudouin d'Aumeries
Co-Development & Prog : Marc-Olivier Méhu
Technical & hardware support : Manuel Goepfert

Contact : metmap@orbifly.com




SOURCES & CREDITS :

   NOAA